Terminal Aerodrome Forecast
Issued by NWS

Home | Current Version | Previous Version | Text Only | Print | Product List | Glossary On
Versions: 1 2 3 4 5 6 7 8 9 10 11 12 13 14 15 16 17 18 19 20 21 22
000
FTUS41 KBTV 012322
TAFPBG
TAF
KPBG 012322Z 0200/0224 16005KT 6SM -SHSN BR OVC060
     FM020400 VRB03KT 6SM -SHSN BR OVC030
     FM021200 30012G25KT P6SM VCSH BKN040=

USA.gov is the U.S. government's official web portal to all federal, state and local government web resources and services.